createdAt,value
2023-01-29T00:01:57.134Z,27.45
2023-01-29T00:04:24.273Z,27.83
2023-01-29T00:06:50.965Z,30.05
2023-01-29T00:09:18.479Z,27.33
2023-01-29T00:11:45.221Z,24.95
2023-01-29T00:14:12.014Z,25.35
2023-01-29T00:16:38.704Z,28.35
2023-01-29T00:19:05.463Z,25.13
2023-01-29T00:21:32.444Z,25.40
2023-01-29T00:24:00.113Z,24.65
2023-01-29T00:26:26.766Z,28.40
2023-01-29T00:28:53.888Z,26.67
2023-01-29T00:31:23.637Z,27.52
2023-01-29T00:33:50.594Z,26.85
2023-01-29T00:36:19.063Z,24.33
2023-01-29T00:38:54.454Z,25.23
2023-01-29T00:41:41.506Z,27.42
2023-01-29T00:44:28.745Z,27.50
2023-01-29T00:46:55.408Z,27.30
2023-01-29T00:49:22.133Z,29.50
2023-01-29T00:52:08.985Z,30.83
2023-01-29T00:54:36.329Z,30.92
2023-01-29T00:57:04.346Z,28.77
2023-01-29T00:59:31.821Z,31.73
2023-01-29T01:02:16.978Z,28.80
2023-01-29T01:04:43.527Z,29.60
2023-01-29T01:09:55.097Z,25.40
2023-01-29T01:12:22.112Z,28.55
2023-01-29T01:14:49.060Z,29.45
2023-01-29T01:17:15.780Z,28.25
2023-01-29T01:19:42.941Z,29.17
2023-01-29T01:22:09.613Z,29.98
2023-01-29T01:24:36.275Z,28.50
2023-01-29T01:27:03.092Z,32.78
2023-01-29T01:29:29.752Z,29.65
2023-01-29T01:31:56.471Z,29.27
2023-01-29T01:34:23.877Z,29.38
2023-01-29T01:36:50.435Z,29.20
2023-01-29T01:39:16.959Z,30.33
2023-01-29T01:41:43.536Z,25.90
2023-01-29T01:44:47.806Z,31.13
2023-01-29T01:47:15.976Z,97.25
2023-01-29T01:49:44.050Z,47.58
2023-01-29T01:52:13.558Z,38.03
2023-01-29T01:54:40.923Z,32.60
2023-01-29T01:57:16.145Z,32.28
2023-01-29T01:59:50.346Z,32.33
2023-01-29T02:02:36.201Z,30.67
2023-01-29T02:05:21.452Z,33.08
2023-01-29T02:08:08.961Z,28.10
2023-01-29T02:10:41.468Z,28.25
2023-01-29T02:15:34.867Z,31.13
2023-01-29T02:18:02.248Z,30.90
2023-01-29T02:20:32.013Z,29.70
2023-01-29T02:23:38.612Z,28.50
2023-01-29T02:26:50.381Z,28.63
2023-01-29T02:29:30.462Z,22.88
2023-01-29T02:32:36.924Z,26.35
2023-01-29T02:35:29.728Z,27.00
2023-01-29T02:38:15.693Z,31.70
2023-01-29T02:40:48.291Z,29.33
2023-01-29T02:45:54.034Z,26.17
2023-01-29T02:48:24.549Z,29.60
2023-01-29T02:51:00.440Z,28.58
2023-01-29T02:53:38.179Z,29.42
2023-01-29T02:56:15.301Z,28.10
2023-01-29T02:58:46.011Z,29.38
2023-01-29T03:01:19.015Z,28.17
2023-01-29T03:03:55.804Z,29.65
2023-01-29T03:06:53.159Z,29.55
2023-01-29T03:09:34.145Z,27.98
2023-01-29T03:12:19.813Z,28.98
2023-01-29T03:15:16.870Z,32.38
2023-01-29T03:18:00.382Z,31.42
2023-01-29T03:20:32.821Z,24.85
2023-01-29T03:23:07.755Z,29.55
2023-01-29T03:25:58.922Z,29.02
2023-01-29T03:28:48.867Z,31.00
2023-01-29T03:31:37.196Z,27.52
2023-01-29T03:34:16.363Z,28.08
2023-01-29T03:36:55.758Z,31.08
2023-01-29T03:39:24.378Z,28.27
2023-01-29T03:42:00.681Z,30.25
2023-01-29T03:44:42.434Z,30.15
2023-01-29T03:47:30.991Z,29.50
2023-01-29T03:50:38.863Z,29.42
2023-01-29T03:53:43.976Z,32.38
2023-01-29T03:56:32.696Z,29.88
2023-01-29T03:59:11.861Z,31.58
2023-01-29T04:02:08.626Z,31.85
2023-01-29T04:04:37.854Z,31.55
2023-01-29T04:07:23.693Z,30.08
2023-01-29T04:10:07.169Z,29.08
2023-01-29T04:12:55.106Z,31.83
2023-01-29T04:15:25.659Z,31.10
2023-01-29T04:17:53.282Z,32.13
2023-01-29T04:20:27.364Z,31.80
2023-01-29T04:22:54.707Z,33.00
2023-01-29T04:25:28.849Z,34.88
2023-01-29T04:28:23.288Z,34.47
2023-01-29T04:30:55.707Z,33.65
2023-01-29T04:33:44.452Z,31.42
2023-01-29T04:36:46.258Z,34.60
2023-01-29T04:39:23.995Z,37.50
2023-01-29T04:42:04.886Z,34.67
2023-01-29T04:44:49.860Z,33.92
2023-01-29T04:47:37.163Z,38.20
2023-01-29T04:50:14.922Z,35.45
2023-01-29T04:53:03.299Z,30.73
2023-01-29T04:55:56.805Z,36.10
2023-01-29T04:58:41.382Z,35.33
2023-01-29T05:01:13.035Z,32.55
2023-01-29T05:03:42.838Z,46.03
2023-01-29T05:06:11.638Z,34.03
2023-01-29T05:08:39.679Z,36.92
2023-01-29T05:11:06.920Z,41.22
2023-01-29T05:13:39.431Z,39.67
2023-01-29T05:18:36.567Z,42.47
2023-01-29T05:21:07.446Z,33.85
2023-01-29T05:23:34.313Z,37.28
2023-01-29T05:26:01.109Z,38.10
2023-01-29T05:28:27.705Z,35.42
2023-01-29T05:30:56.775Z,38.17
2023-01-29T05:33:28.041Z,37.42
2023-01-29T05:35:56.028Z,35.70
2023-01-29T05:38:23.201Z,39.72
2023-01-29T05:40:49.853Z,39.25
2023-01-29T05:43:19.084Z,38.85
2023-01-29T05:45:59.666Z,37.42
2023-01-29T05:48:32.308Z,39.13
2023-01-29T05:51:03.664Z,38.03
2023-01-29T05:53:31.312Z,38.40
2023-01-29T05:56:01.383Z,35.97
2023-01-29T05:58:28.196Z,34.80
2023-01-29T06:00:54.722Z,35.88
2023-01-29T06:03:21.209Z,36.97
2023-01-29T06:05:47.807Z,37.97
2023-01-29T06:08:14.395Z,39.45
2023-01-29T06:10:41.001Z,41.42
2023-01-29T06:13:07.926Z,37.78
2023-01-29T06:15:34.568Z,32.38
2023-01-29T06:18:01.092Z,33.47
2023-01-29T06:20:27.756Z,42.05
2023-01-29T06:22:54.400Z,41.22
2023-01-29T06:25:21.064Z,41.50
2023-01-29T06:27:51.085Z,39.95
2023-01-29T06:30:18.002Z,41.53
2023-01-29T06:32:44.765Z,42.42
2023-01-29T06:35:11.329Z,37.28
2023-01-29T06:37:38.329Z,38.80
2023-01-29T06:40:05.435Z,41.30
2023-01-29T06:42:32.078Z,42.92
2023-01-29T06:44:58.568Z,40.28
2023-01-29T06:47:27.125Z,42.25
2023-01-29T06:49:53.704Z,43.65
2023-01-29T06:52:20.204Z,38.92
2023-01-29T06:54:47.465Z,41.17
2023-01-29T06:57:14.064Z,41.45
2023-01-29T06:59:40.668Z,39.20
2023-01-29T07:02:07.278Z,38.95
2023-01-29T07:04:35.492Z,40.60
2023-01-29T07:07:02.105Z,44.35
2023-01-29T07:09:28.681Z,45.90
2023-01-29T07:11:55.283Z,42.97
2023-01-29T07:14:22.071Z,40.72
2023-01-29T07:16:48.680Z,45.13
2023-01-29T07:19:15.305Z,41.00
2023-01-29T07:21:41.941Z,38.85
2023-01-29T07:24:08.808Z,40.25
2023-01-29T07:26:35.433Z,38.90
2023-01-29T07:29:01.949Z,42.22
2023-01-29T07:31:28.657Z,40.63
2023-01-29T07:33:55.874Z,42.95
2023-01-29T07:36:24.050Z,44.80
2023-01-29T07:38:51.341Z,42.10
2023-01-29T07:41:17.943Z,43.67
2023-01-29T07:43:46.096Z,45.33
2023-01-29T07:46:12.766Z,41.03
2023-01-29T07:48:39.406Z,40.20
2023-01-29T07:51:06.550Z,44.35
2023-01-29T07:53:33.368Z,41.47
2023-01-29T07:56:00.188Z,42.25
2023-01-29T07:58:26.718Z,40.15
2023-01-29T08:00:53.281Z,42.25
2023-01-29T08:03:20.744Z,39.72
2023-01-29T08:05:47.448Z,42.78
2023-01-29T08:08:14.917Z,45.22
2023-01-29T08:10:41.769Z,42.13
2023-01-29T08:13:09.065Z,40.10
2023-01-29T08:15:38.011Z,44.05
2023-01-29T08:18:05.866Z,44.03
2023-01-29T08:20:32.467Z,45.60
2023-01-29T08:23:01.163Z,45.13
2023-01-29T08:25:28.584Z,42.40
2023-01-29T08:27:57.487Z,38.08
2023-01-29T08:30:29.660Z,41.38
2023-01-29T08:32:56.350Z,44.05
2023-01-29T08:35:23.503Z,39.45
2023-01-29T08:37:59.363Z,46.08
2023-01-29T08:40:27.825Z,43.55
2023-01-29T08:43:01.509Z,42.78
2023-01-29T08:45:28.999Z,40.13
2023-01-29T08:47:55.529Z,42.17
2023-01-29T08:50:22.168Z,40.35
2023-01-29T08:52:48.653Z,38.80
2023-01-29T08:55:15.559Z,42.80
2023-01-29T08:57:42.245Z,36.72
2023-01-29T09:00:10.170Z,39.28
2023-01-29T09:02:37.690Z,36.35
2023-01-29T09:05:05.585Z,38.17
2023-01-29T09:07:32.164Z,36.03
2023-01-29T09:09:58.753Z,34.47
2023-01-29T09:12:25.893Z,35.55
2023-01-29T09:14:52.574Z,39.70
2023-01-29T09:17:19.358Z,37.88
2023-01-29T09:19:46.025Z,37.08
2023-01-29T09:22:15.621Z,34.55
2023-01-29T09:24:42.254Z,34.38
2023-01-29T09:27:10.001Z,32.85
2023-01-29T09:29:37.117Z,37.67
2023-01-29T09:32:04.623Z,34.05
2023-01-29T09:34:31.279Z,35.90
2023-01-29T09:36:57.922Z,37.03
2023-01-29T09:39:24.509Z,38.80
2023-01-29T09:42:03.165Z,40.65
2023-01-29T09:44:38.913Z,34.83
2023-01-29T09:47:13.201Z,34.00
2023-01-29T09:50:01.503Z,35.65
2023-01-29T09:52:30.173Z,33.53
2023-01-29T09:55:28.508Z,32.22
2023-01-29T09:57:58.421Z,32.90
2023-01-29T10:00:37.449Z,32.75
2023-01-29T10:03:31.737Z,35.83
2023-01-29T10:06:34.948Z,35.58
2023-01-29T10:12:27.372Z,35.80
2023-01-29T10:15:45.208Z,36.13
2023-01-29T10:18:35.783Z,34.03
2023-01-29T10:21:19.579Z,37.03
2023-01-29T10:23:50.873Z,36.20
2023-01-29T10:26:21.188Z,30.40
2023-01-29T10:28:50.825Z,35.33
2023-01-29T10:31:24.955Z,32.92
2023-01-29T10:34:03.466Z,37.40
2023-01-29T10:36:45.727Z,31.98
2023-01-29T10:39:18.367Z,35.30
2023-01-29T10:42:01.583Z,33.97
2023-01-29T10:44:39.508Z,35.08
2023-01-29T10:47:30.236Z,31.52
2023-01-29T10:50:21.356Z,34.28
2023-01-29T10:52:55.122Z,33.70
2023-01-29T10:55:46.565Z,31.95
2023-01-29T10:58:37.510Z,31.08
2023-01-29T11:01:04.516Z,36.65
2023-01-29T11:03:33.295Z,31.00
2023-01-29T11:06:19.543Z,33.95
2023-01-29T11:09:23.111Z,32.00
2023-01-29T11:11:54.497Z,31.30
2023-01-29T11:14:26.625Z,33.90
2023-01-29T11:16:53.365Z,33.22
2023-01-29T11:19:37.219Z,28.63
2023-01-29T11:22:04.430Z,31.27
2023-01-29T11:24:31.079Z,31.40
2023-01-29T11:26:59.672Z,28.45
2023-01-29T11:29:43.113Z,29.70
2023-01-29T11:32:21.786Z,27.75
2023-01-29T11:34:58.675Z,27.08
2023-01-29T11:37:32.420Z,31.55
2023-01-29T11:39:59.234Z,27.88
2023-01-29T11:42:34.760Z,27.83
2023-01-29T11:45:01.330Z,28.40
2023-01-29T11:47:30.240Z,26.88
2023-01-29T11:50:03.114Z,26.23
2023-01-29T11:52:42.054Z,27.67
2023-01-29T11:55:18.697Z,26.48
2023-01-29T11:57:52.125Z,28.55
2023-01-29T12:00:28.289Z,24.98
2023-01-29T12:02:57.809Z,25.08
2023-01-29T12:05:26.483Z,24.15
2023-01-29T12:07:56.612Z,27.50
2023-01-29T12:10:35.601Z,23.95
2023-01-29T12:13:11.116Z,24.58
2023-01-29T12:15:42.642Z,28.35
2023-01-29T12:18:14.449Z,21.33
2023-01-29T12:20:47.792Z,24.30
2023-01-29T12:23:33.549Z,24.75
2023-01-29T12:26:12.807Z,28.40
2023-01-29T12:28:43.856Z,25.23
2023-01-29T12:31:33.109Z,26.13
2023-01-29T12:34:56.349Z,24.27
2023-01-29T12:37:31.761Z,24.55
2023-01-29T12:39:58.396Z,25.52
2023-01-29T12:42:25.468Z,25.23
2023-01-29T12:44:57.553Z,25.48
2023-01-29T12:47:31.069Z,21.58
2023-01-29T12:50:03.538Z,24.35
2023-01-29T12:53:07.308Z,25.80
2023-01-29T12:55:45.121Z,25.40
2023-01-29T12:58:28.622Z,24.92
2023-01-29T13:01:00.889Z,27.83
2023-01-29T13:03:37.460Z,26.05
2023-01-29T13:06:10.701Z,26.50
2023-01-29T13:08:44.950Z,26.77
2023-01-29T13:11:19.670Z,28.92
2023-01-29T13:13:54.606Z,27.50
2023-01-29T13:16:33.348Z,31.15
2023-01-29T13:19:23.999Z,28.33
2023-01-29T13:21:53.511Z,31.00
2023-01-29T13:24:23.476Z,28.20
2023-01-29T13:26:50.862Z,29.38
2023-01-29T13:29:23.706Z,29.15
2023-01-29T13:31:53.566Z,28.42
2023-01-29T13:34:22.873Z,30.77
2023-01-29T13:36:56.106Z,29.73
2023-01-29T13:39:25.026Z,28.17
2023-01-29T13:41:52.955Z,39.42
2023-01-29T13:44:42.242Z,28.55
2023-01-29T13:47:11.854Z,33.72
2023-01-29T13:49:41.850Z,31.65
2023-01-29T13:52:27.548Z,31.40
2023-01-29T13:54:58.642Z,29.08
2023-01-29T13:57:40.361Z,31.70
2023-01-29T14:00:32.962Z,33.88
2023-01-29T14:03:04.622Z,30.23
2023-01-29T14:05:31.185Z,30.30
2023-01-29T14:08:02.081Z,31.73
2023-01-29T14:10:30.638Z,31.83
2023-01-29T14:13:03.220Z,30.90
2023-01-29T14:18:22.063Z,29.45
2023-01-29T14:20:48.492Z,33.63
2023-01-29T14:23:33.171Z,33.20
2023-01-29T14:26:02.509Z,36.03
2023-01-29T14:28:30.937Z,33.17
2023-01-29T14:30:58.226Z,34.58
2023-01-29T14:33:37.458Z,31.83
2023-01-29T14:36:12.554Z,31.15
2023-01-29T14:38:46.416Z,35.58
2023-01-29T14:41:33.998Z,36.60
2023-01-29T14:44:38.021Z,32.17
2023-01-29T14:47:04.881Z,34.00
2023-01-29T14:49:50.215Z,34.13
2023-01-29T14:52:20.552Z,32.70
2023-01-29T14:54:48.629Z,31.33
2023-01-29T14:57:17.862Z,32.35
2023-01-29T14:59:49.139Z,32.10
2023-01-29T15:02:22.854Z,35.47
2023-01-29T15:04:53.881Z,34.97
2023-01-29T15:07:30.156Z,31.45
2023-01-29T15:10:22.237Z,38.22
2023-01-29T15:12:58.128Z,38.40
2023-01-29T15:15:56.984Z,35.50
2023-01-29T15:18:43.209Z,35.25
2023-01-29T15:21:15.623Z,35.67
2023-01-29T15:23:44.135Z,35.13
2023-01-29T15:26:19.052Z,33.63
2023-01-29T15:29:02.127Z,37.67
2023-01-29T15:31:31.243Z,36.65
2023-01-29T15:34:06.612Z,35.50
2023-01-29T15:36:33.566Z,34.45
2023-01-29T15:39:28.282Z,32.75
2023-01-29T15:42:12.671Z,37.85
2023-01-29T15:44:45.566Z,34.92
2023-01-29T15:47:13.534Z,43.83
2023-01-29T15:49:41.295Z,36.58
2023-01-29T15:52:15.919Z,37.75
2023-01-29T15:54:44.043Z,37.78
2023-01-29T15:57:21.531Z,37.28
2023-01-29T15:59:51.742Z,35.97
2023-01-29T16:02:39.646Z,32.90
2023-01-29T16:05:30.610Z,34.88
2023-01-29T16:07:57.716Z,36.05
2023-01-29T16:10:29.984Z,32.05
2023-01-29T16:12:57.869Z,37.95
2023-01-29T16:15:33.923Z,34.53
2023-01-29T16:18:03.232Z,39.97
2023-01-29T16:20:46.731Z,36.35
2023-01-29T16:23:19.923Z,38.15
2023-01-29T16:25:48.848Z,33.97
2023-01-29T16:28:16.351Z,35.00
2023-01-29T16:30:43.033Z,34.38
2023-01-29T16:33:14.638Z,32.92
2023-01-29T16:35:41.887Z,37.35
2023-01-29T16:38:32.501Z,37.60
2023-01-29T16:41:14.232Z,36.60
2023-01-29T16:43:43.575Z,33.20
2023-01-29T16:46:44.716Z,33.03
2023-01-29T16:49:26.804Z,36.53
2023-01-29T16:51:56.263Z,37.17
2023-01-29T16:54:27.551Z,40.55
2023-01-29T16:56:58.965Z,35.35
2023-01-29T16:59:34.082Z,36.30
2023-01-29T17:02:01.060Z,37.20
2023-01-29T17:04:28.042Z,37.55
2023-01-29T17:06:58.693Z,35.75
2023-01-29T17:09:34.807Z,34.15
2023-01-29T17:12:05.538Z,33.97
2023-01-29T17:14:33.281Z,36.08
2023-01-29T17:17:14.335Z,39.28
2023-01-29T17:19:40.920Z,34.78
2023-01-29T17:22:14.804Z,37.90
2023-01-29T17:24:42.116Z,35.17
2023-01-29T17:27:18.761Z,35.42
2023-01-29T17:29:45.562Z,36.83
2023-01-29T17:32:12.640Z,31.20
2023-01-29T17:34:39.527Z,34.28
2023-01-29T17:37:06.053Z,33.03
2023-01-29T17:39:32.707Z,36.58
2023-01-29T17:41:59.355Z,36.13
2023-01-29T17:44:26.145Z,36.15
2023-01-29T17:46:52.828Z,37.05
2023-01-29T17:49:27.728Z,35.50
2023-01-29T17:51:56.049Z,34.53
2023-01-29T17:54:23.126Z,37.38
2023-01-29T17:56:50.493Z,31.08
2023-01-29T17:59:22.195Z,33.05
2023-01-29T18:01:50.073Z,31.50
2023-01-29T18:04:17.784Z,29.48
2023-01-29T18:06:47.500Z,34.72
2023-01-29T18:09:15.640Z,33.10
2023-01-29T18:11:43.101Z,30.63
2023-01-29T18:14:14.498Z,28.77
2023-01-29T18:16:42.930Z,35.22
2023-01-29T18:19:16.258Z,29.70
2023-01-29T18:21:42.839Z,29.67
2023-01-29T18:24:09.462Z,32.65
2023-01-29T18:26:36.461Z,29.00
2023-01-29T18:29:04.359Z,31.38
2023-01-29T18:31:31.697Z,30.92
2023-01-29T18:33:58.386Z,30.35
2023-01-29T18:36:25.097Z,32.97
2023-01-29T18:38:51.775Z,31.27
2023-01-29T18:41:18.612Z,28.48
2023-01-29T18:43:45.241Z,27.65
2023-01-29T18:46:11.944Z,29.65
2023-01-29T18:48:39.916Z,30.73
2023-01-29T18:51:07.545Z,29.08
2023-01-29T18:53:34.149Z,26.13
2023-01-29T18:56:04.300Z,31.15
2023-01-29T18:58:34.424Z,28.33
2023-01-29T19:01:01.958Z,32.63
2023-01-29T19:03:28.671Z,31.42
2023-01-29T19:06:01.119Z,33.22
2023-01-29T19:08:27.977Z,27.88
2023-01-29T19:10:54.793Z,34.38
2023-01-29T19:13:21.580Z,35.05
2023-01-29T19:15:49.043Z,30.00
2023-01-29T19:18:15.763Z,31.83
2023-01-29T19:20:42.428Z,29.30
2023-01-29T19:23:09.546Z,33.25
2023-01-29T19:25:38.678Z,31.13
2023-01-29T19:28:06.986Z,31.05
2023-01-29T19:30:33.697Z,30.27
2023-01-29T19:33:00.281Z,32.58
2023-01-29T19:35:27.001Z,30.20
2023-01-29T19:37:53.515Z,31.15
2023-01-29T19:40:20.982Z,32.92
2023-01-29T19:42:48.472Z,30.88
2023-01-29T19:45:15.359Z,31.20
2023-01-29T19:47:43.403Z,32.67
2023-01-29T19:50:11.205Z,30.92
2023-01-29T19:52:50.649Z,31.55
2023-01-29T19:55:18.880Z,33.67
2023-01-29T19:57:46.256Z,36.15
2023-01-29T20:00:17.256Z,34.75
2023-01-29T20:02:43.912Z,33.60
2023-01-29T20:05:12.624Z,33.78
2023-01-29T20:07:41.077Z,32.60
2023-01-29T20:10:11.336Z,35.70
2023-01-29T20:12:38.356Z,32.33
2023-01-29T20:15:05.345Z,35.90
2023-01-29T20:17:32.137Z,34.13
2023-01-29T20:19:58.662Z,34.88
2023-01-29T20:22:26.499Z,36.63
2023-01-29T20:24:53.167Z,35.42
2023-01-29T20:27:19.738Z,36.13
2023-01-29T20:29:46.593Z,37.22
2023-01-29T20:32:14.461Z,36.10
2023-01-29T20:34:41.325Z,37.40
2023-01-29T20:37:07.841Z,38.13
2023-01-29T20:39:34.377Z,35.55
2023-01-29T20:42:00.919Z,35.22
2023-01-29T20:44:27.495Z,34.65
2023-01-29T20:46:54.135Z,41.20
2023-01-29T20:49:21.711Z,38.75
2023-01-29T20:51:48.568Z,35.42
2023-01-29T20:54:15.155Z,36.78
2023-01-29T20:56:42.859Z,35.95
2023-01-29T20:59:10.375Z,36.92
2023-01-29T21:01:37.067Z,37.33
2023-01-29T21:04:03.758Z,39.30
2023-01-29T21:06:30.462Z,38.05
2023-01-29T21:08:57.114Z,41.13
2023-01-29T21:11:23.862Z,38.03
2023-01-29T21:13:53.158Z,36.92
2023-01-29T21:16:19.876Z,40.70
2023-01-29T21:18:46.556Z,37.38
2023-01-29T21:21:13.229Z,36.53
2023-01-29T21:23:39.819Z,38.65
2023-01-29T21:26:07.138Z,40.65
2023-01-29T21:28:33.862Z,39.22
2023-01-29T21:31:10.079Z,36.08
2023-01-29T21:33:37.563Z,38.20
2023-01-29T21:36:04.578Z,37.47
2023-01-29T21:38:31.157Z,39.75
2023-01-29T21:41:02.715Z,40.72
2023-01-29T21:43:29.306Z,38.05
2023-01-29T21:45:57.466Z,39.58
2023-01-29T21:48:24.621Z,46.15
2023-01-29T21:50:52.354Z,39.08
2023-01-29T21:53:19.168Z,40.35
2023-01-29T21:55:46.374Z,38.28
2023-01-29T21:58:14.523Z,39.33
2023-01-29T22:00:41.250Z,43.60
2023-01-29T22:03:07.886Z,43.95
2023-01-29T22:05:34.770Z,35.75
2023-01-29T22:08:01.505Z,36.38
2023-01-29T22:10:28.855Z,42.55
2023-01-29T22:12:55.682Z,37.72
2023-01-29T22:15:23.909Z,40.47
2023-01-29T22:17:51.106Z,36.63
2023-01-29T22:20:18.857Z,38.00
2023-01-29T22:22:45.738Z,38.38
2023-01-29T22:25:12.627Z,41.10
2023-01-29T22:27:39.155Z,40.70
2023-01-29T22:30:06.562Z,37.38
2023-01-29T22:32:33.345Z,41.05
2023-01-29T22:34:59.945Z,40.17
2023-01-29T22:37:26.563Z,37.20
2023-01-29T22:39:53.076Z,40.40
2023-01-29T22:42:20.572Z,43.17
2023-01-29T22:44:48.101Z,39.67
2023-01-29T22:47:14.926Z,40.65
2023-01-29T22:49:42.346Z,39.80
2023-01-29T22:52:11.902Z,43.13
2023-01-29T22:54:40.399Z,46.30
2023-01-29T22:57:10.055Z,41.45
2023-01-29T22:59:37.318Z,45.40
2023-01-29T23:02:04.499Z,45.42
2023-01-29T23:04:31.272Z,42.92
2023-01-29T23:06:57.831Z,38.67
2023-01-29T23:09:24.413Z,42.33
2023-01-29T23:11:51.065Z,47.15
2023-01-29T23:14:17.959Z,41.55
2023-01-29T23:16:44.554Z,41.35
2023-01-29T23:19:12.140Z,42.30
2023-01-29T23:21:39.572Z,43.67
2023-01-29T23:24:07.440Z,41.60
2023-01-29T23:26:52.930Z,47.35
2023-01-29T23:29:19.533Z,44.00
2023-01-29T23:31:46.221Z,49.17
2023-01-29T23:34:13.758Z,44.95
2023-01-29T23:36:40.464Z,41.17
2023-01-29T23:39:07.747Z,41.75
2023-01-29T23:41:34.462Z,45.08
2023-01-29T23:44:01.132Z,39.72
2023-01-29T23:46:27.814Z,44.15
2023-01-29T23:48:54.384Z,45.05
2023-01-29T23:51:21.069Z,46.35
2023-01-29T23:53:47.623Z,43.15
2023-01-29T23:56:14.168Z,43.50
2023-01-29T23:58:40.752Z,44.10
